Time;durP1;ratioP1;P1;durP2;ratioP2;P2;SDS_P1;SDS_P2;PMS_P1;PMS_P2;Temp;Humidity;BMP_temperature;BMP_pressure;BME280_temperature;BME280_humidity;BME280_pressure;Samples;Min_cycle;Max_cycle;Signal;HPM_P1;HPM_P2
2022/04/23 00:01:29;;;;;;;19.58;12.35;;;3.40;99.90;;;;;;5041466;28;20037;-61
2022/04/23 00:03:55;;;;;;;18.52;12.70;;;3.40;99.90;;;;;;5030613;28;20037;-60
2022/04/23 00:06:21;;;;;;;16.40;12.15;;;3.30;99.90;;;;;;5047477;28;20056;-61
2022/04/23 00:08:46;;;;;;;20.92;14.35;;;3.40;99.90;;;;;;5050147;28;20386;-61
2022/04/23 00:11:11;;;;;;;17.08;12.93;;;3.50;99.90;;;;;;5034520;28;20037;-61
2022/04/23 00:13:38;;;;;;;18.13;12.35;;;3.50;99.90;;;;;;5048615;28;20017;-61
2022/04/23 00:16:05;;;;;;;19.48;13.45;;;3.50;99.90;;;;;;5033408;28;20027;-61
2022/04/23 00:18:30;;;;;;;17.13;11.63;;;3.40;99.90;;;;;;5050066;28;20036;-60
2022/04/23 00:20:56;;;;;;;18.10;12.77;;;3.40;99.90;;;;;;5031981;28;20029;-61
2022/04/23 00:23:22;;;;;;;19.80;13.38;;;3.30;99.90;;;;;;5049896;28;20033;-61
2022/04/23 00:25:51;;;;;;;19.20;13.27;;;3.30;99.90;;;;;;5030114;28;20500;-61
2022/04/23 00:28:17;;;;;;;22.02;16.48;;;3.20;99.90;;;;;;5049656;28;20068;-60
2022/04/23 00:30:44;;;;;;;22.52;14.77;;;3.20;99.90;;;;;;5029973;28;20044;-61
2022/04/23 00:33:10;;;;;;;20.90;13.70;;;3.20;99.90;;;;;;5031886;28;20021;-58
2022/04/23 00:35:36;;;;;;;22.05;14.38;;;3.10;99.90;;;;;;5028949;28;20398;-61
2022/04/23 00:38:03;;;;;;;20.73;14.30;;;3.10;99.90;;;;;;5049599;28;20028;-61
2022/04/23 00:40:30;;;;;;;19.63;13.65;;;3.00;99.90;;;;;;5030003;28;20433;-60
2022/04/23 00:42:57;;;;;;;22.02;15.15;;;3.00;99.90;;;;;;5029465;28;20033;-61
2022/04/23 00:45:25;;;;;;;26.30;15.63;;;3.00;99.90;;;;;;5049047;28;20029;-61
2022/04/23 00:47:51;;;;;;;19.25;12.68;;;2.90;99.90;;;;;;5027847;28;20037;-61
2022/04/23 00:50:21;;;;;;;24.00;15.73;;;2.80;99.90;;;;;;5042061;28;20103;-61
2022/04/23 00:52:51;;;;;;;23.02;13.82;;;2.60;99.90;;;;;;5027819;28;20657;-61
2022/04/23 00:55:18;;;;;;;18.95;13.55;;;2.50;99.90;;;;;;5009509;28;20034;-62
2022/04/23 00:57:44;;;;;;;18.15;13.15;;;2.30;99.90;;;;;;5028300;28;20681;-60
2022/04/23 01:00:11;;;;;;;24.95;16.05;;;2.30;99.90;;;;;;5032893;28;20408;-73
2022/04/23 01:02:36;;;;;;;20.95;13.40;;;2.20;99.90;;;;;;5029232;28;20104;-73
2022/04/23 01:05:08;;;;;;;23.90;14.75;;;2.10;99.90;;;;;;5048385;28;20252;-72
2022/04/23 01:07:41;;;;;;;21.02;12.90;;;2.00;99.90;;;;;;5024386;28;20091;-72
2022/04/23 01:10:07;;;;;;;17.10;11.15;;;1.90;99.90;;;;;;5009510;28;20041;-60
2022/04/23 01:12:35;;;;;;;23.73;14.90;;;1.90;99.90;;;;;;5029192;28;20033;-60
2022/04/23 01:15:06;;;;;;;21.23;12.82;;;1.80;99.90;;;;;;5048287;28;20036;-59
2022/04/23 01:17:32;;;;;;;19.55;13.20;;;1.80;99.90;;;;;;5024125;28;20037;-59
2022/04/23 01:19:58;;;;;;;18.70;12.15;;;1.80;99.90;;;;;;5048065;28;20070;-60
2022/04/23 01:22:24;;;;;;;19.88;13.63;;;1.80;99.90;;;;;;5027646;28;20115;-60
2022/04/23 01:24:54;;;;;;;23.90;15.10;;;1.80;99.90;;;;;;5048100;28;20024;-59
2022/04/23 01:27:23;;;;;;;22.05;15.30;;;1.70;99.90;;;;;;5027042;28;20048;-60
2022/04/23 01:29:49;;;;;;;19.92;12.80;;;1.70;99.90;;;;;;5048386;28;20025;-60
2022/04/23 01:32:14;;;;;;;26.80;15.13;;;1.70;99.90;;;;;;5027360;28;20034;-60
2022/04/23 01:34:40;;;;;;;24.73;14.35;;;1.70;99.90;;;;;;5047636;28;20079;-58
2022/04/23 01:37:05;;;;;;;21.92;14.32;;;1.60;99.90;;;;;;5027447;28;20040;-59
2022/04/23 01:39:31;;;;;;;22.38;14.55;;;1.60;99.90;;;;;;5047686;28;20514;-59
2022/04/23 01:41:56;;;;;;;22.23;14.00;;;1.50;99.90;;;;;;5026986;28;20111;-60
2022/04/23 01:44:22;;;;;;;24.65;14.82;;;1.50;99.90;;;;;;5047646;28;20029;-59
2022/04/23 01:46:47;;;;;;;21.90;14.07;;;1.40;99.90;;;;;;5037535;28;20037;-59
2022/04/23 01:49:13;;;;;;;28.23;14.68;;;1.30;99.90;;;;;;5029007;28;20033;-60
2022/04/23 01:51:38;;;;;;;22.27;14.15;;;1.30;99.90;;;;;;5045166;28;20064;-60
2022/04/23 01:54:04;;;;;;;23.48;14.77;;;1.30;99.90;;;;;;5028825;28;20033;-60
2022/04/23 01:56:29;;;;;;;25.83;14.88;;;1.30;99.90;;;;;;5045601;28;20033;-57
2022/04/23 01:58:54;;;;;;;20.00;12.88;;;1.30;99.90;;;;;;5028657;28;20739;-59
2022/04/23 02:01:20;;;;;;;20.33;13.57;;;1.30;99.90;;;;;;5038278;28;20087;-59
2022/04/23 02:03:46;;;;;;;22.10;14.52;;;1.30;99.90;;;;;;5048127;28;20100;-59
2022/04/23 02:06:15;;;;;;;24.92;15.50;;;1.50;99.90;;;;;;5032356;28;20481;-60
2022/04/23 02:08:41;;;;;;;21.52;13.75;;;1.50;99.90;;;;;;5047854;28;20041;-60
2022/04/23 02:11:06;;;;;;;24.45;14.65;;;1.50;99.90;;;;;;5031792;28;20051;-59
2022/04/23 02:13:32;;;;;;;21.88;13.43;;;1.50;99.90;;;;;;5048174;28;20025;-60
2022/04/23 02:15:57;;;;;;;25.70;15.25;;;1.50;99.90;;;;;;5030151;28;20021;-60
2022/04/23 02:18:23;;;;;;;23.15;14.27;;;1.60;99.90;;;;;;5047974;28;20078;-60
2022/04/23 02:20:49;;;;;;;20.95;13.35;;;1.60;99.90;;;;;;5029349;28;20591;-59
2022/04/23 02:23:14;;;;;;;21.05;13.52;;;1.60;99.90;;;;;;5047656;28;20500;-56
2022/04/23 02:25:42;;;;;;;21.13;13.55;;;1.60;99.90;;;;;;5028236;28;20040;-56
2022/04/23 02:28:07;;;;;;;19.45;12.32;;;1.60;99.90;;;;;;5047870;28;20179;-58
2022/04/23 02:30:33;;;;;;;25.00;14.40;;;1.50;99.90;;;;;;5027062;28;20112;-60
2022/04/23 02:32:59;;;;;;;20.90;12.55;;;1.50;99.90;;;;;;5047584;28;20346;-60
2022/04/23 02:35:25;;;;;;;19.67;12.35;;;1.40;99.90;;;;;;5028343;28;20030;-59
2022/04/23 02:37:56;;;;;;;21.73;13.52;;;1.40;99.90;;;;;;5045368;28;20040;-59
2022/04/23 02:40:22;;;;;;;19.83;12.65;;;1.50;99.90;;;;;;5027855;28;20036;-59
2022/04/23 02:42:50;;;;;;;25.42;15.77;;;1.50;99.90;;;;;;5023996;28;20460;-60
2022/04/23 02:45:16;;;;;;;24.00;14.80;;;1.50;99.90;;;;;;5047096;28;20444;-58
2022/04/23 02:48:00;;;;;;;18.65;11.82;;;1.40;99.90;;;;;;5026464;28;20045;-60
2022/04/23 02:50:37;;;;;;;20.92;12.52;;;1.40;99.90;;;;;;5026838;28;20068;-59
2022/04/23 02:53:04;;;;;;;25.38;15.27;;;1.40;99.90;;;;;;5012134;28;20448;-59
2022/04/23 02:55:32;;;;;;;29.08;17.05;;;1.50;99.90;;;;;;5048855;28;20127;-60
2022/04/23 02:58:03;;;;;;;25.65;15.07;;;1.50;99.90;;;;;;5051453;28;20037;-58
2022/04/23 03:00:28;;;;;;;25.20;15.07;;;1.40;99.90;;;;;;5035587;28;20056;-58
2022/04/23 03:02:54;;;;;;;24.20;15.52;;;1.40;99.90;;;;;;5049848;28;20321;-60
2022/04/23 03:05:21;;;;;;;24.48;14.82;;;1.40;99.90;;;;;;5031728;28;20057;-59
2022/04/23 03:07:47;;;;;;;27.83;16.50;;;1.30;99.90;;;;;;5030014;28;20084;-57
2022/04/23 03:10:14;;;;;;;27.08;17.00;;;1.30;99.90;;;;;;5050712;28;20064;-60
2022/04/23 03:12:40;;;;;;;27.40;16.15;;;1.20;99.90;;;;;;5029655;28;20045;-58
2022/04/23 03:15:13;;;;;;;26.83;15.10;;;1.10;99.90;;;;;;5050537;28;20053;-58
2022/04/23 03:17:39;;;;;;;24.10;15.18;;;1.00;99.90;;;;;;5029293;28;20401;-58
2022/04/23 03:20:05;;;;;;;24.65;15.50;;;1.00;99.90;;;;;;5050457;28;20044;-59
2022/04/23 03:22:31;;;;;;;23.75;14.82;;;1.00;99.90;;;;;;5029852;28;20071;-59
2022/04/23 03:24:56;;;;;;;29.05;17.08;;;1.00;99.90;;;;;;5050072;28;20524;-60
2022/04/23 03:27:22;;;;;;;30.00;18.75;;;1.00;99.90;;;;;;5029768;28;20032;-59
2022/04/23 03:29:48;;;;;;;28.65;17.05;;;1.00;99.90;;;;;;5050264;28;20091;-59
2022/04/23 03:32:13;;;;;;;26.50;16.63;;;1.10;99.90;;;;;;5029800;28;20026;-59
2022/04/23 03:34:39;;;;;;;27.20;15.85;;;1.10;99.90;;;;;;5050348;28;20459;-57
2022/04/23 03:37:05;;;;;;;27.55;15.82;;;1.10;99.90;;;;;;5029587;28;20032;-58
2022/04/23 03:39:34;;;;;;;27.45;15.55;;;1.00;99.90;;;;;;5050481;28;20174;-59
2022/04/23 03:42:02;;;;;;;23.98;13.70;;;0.90;99.90;;;;;;5029317;28;20037;-58
2022/04/23 03:44:29;;;;;;;19.58;12.75;;;1.00;99.90;;;;;;5050192;28;20044;-57
2022/04/23 03:46:56;;;;;;;24.40;16.23;;;1.00;99.90;;;;;;5028946;28;20116;-57
2022/04/23 03:49:23;;;;;;;30.42;19.77;;;1.00;99.90;;;;;;5050062;28;20047;-58
2022/04/23 03:51:49;;;;;;;26.63;15.98;;;1.20;99.90;;;;;;5039751;28;20052;-57
2022/04/23 03:54:15;;;;;;;26.38;16.13;;;1.40;99.90;;;;;;5030849;28;20095;-60
2022/04/23 03:56:40;;;;;;;26.75;17.40;;;1.50;99.90;;;;;;5047900;28;20033;-59
2022/04/23 03:59:07;;;;;;;29.10;15.25;;;1.60;99.90;;;;;;5030583;28;20037;-59
2022/04/23 04:01:33;;;;;;;22.05;14.50;;;1.70;99.90;;;;;;5040850;28;20029;-59
2022/04/23 04:04:00;;;;;;;24.65;14.65;;;1.70;99.90;;;;;;5030539;28;20090;-59
2022/04/23 04:06:27;;;;;;;19.67;12.88;;;1.80;99.90;;;;;;5047985;28;20025;-58
2022/04/23 04:08:53;;;;;;;23.00;14.00;;;1.90;99.90;;;;;;5030530;28;20500;-58
2022/04/23 04:11:19;;;;;;;21.33;12.98;;;1.90;99.90;;;;;;5047617;28;20080;-58
2022/04/23 04:13:44;;;;;;;27.20;14.60;;;1.90;99.90;;;;;;5050188;28;20028;-58
2022/04/23 04:16:12;;;;;;;29.27;15.73;;;2.00;99.90;;;;;;5034804;28;20071;-55
2022/04/23 04:18:37;;;;;;;22.40;13.95;;;2.00;99.90;;;;;;5031960;28;20393;-59
2022/04/23 04:21:03;;;;;;;25.60;14.98;;;2.10;99.90;;;;;;5033313;28;20021;-58
2022/04/23 04:23:29;;;;;;;19.00;11.70;;;2.10;99.90;;;;;;5050128;28;20453;-59
2022/04/23 04:25:54;;;;;;;24.00;13.18;;;2.20;99.90;;;;;;5032079;28;20214;-56
2022/04/23 04:28:20;;;;;;;21.02;13.15;;;2.30;99.90;;;;;;5049803;28;20040;-58
2022/04/23 04:33:31;;;;;;;20.77;13.23;;;2.40;99.90;;;;;;5050153;28;20036;-58
2022/04/23 04:35:56;;;;;;;22.75;13.57;;;3.30;99.90;;;;;;5032002;28;20225;-58
2022/04/23 04:38:22;;;;;;;19.05;14.07;;;4.30;99.90;;;;;;5049720;28;20039;-58
2022/04/23 04:40:47;;;;;;;19.45;12.57;;;5.00;99.90;;;;;;5030904;28;20053;-58
2022/04/23 04:43:13;;;;;;;16.10;11.57;;;6.40;99.90;;;;;;5049721;28;20173;-59
2022/04/23 04:45:38;;;;;;;16.52;12.48;;;7.80;99.90;;;;;;5029263;28;20025;-58
2022/04/23 04:48:05;;;;;;;14.35;11.23;;;9.20;99.90;;;;;;5049691;28;20045;-58
2022/04/23 04:50:31;;;;;;;16.27;11.63;;;10.30;99.90;;;;;;5035678;28;20543;-58
2022/04/23 04:52:57;;;;;;;14.02;11.00;;;11.40;96.30;;;;;;5029252;28;20039;-58
2022/04/23 04:55:23;;;;;;;12.93;10.23;;;12.40;87.40;;;;;;5048825;28;20079;-58
2022/04/23 04:57:49;;;;;;;12.35;9.15;;;13.30;76.10;;;;;;5028109;28;20021;-57
2022/04/23 05:00:16;;;;;;;14.18;10.05;;;14.20;65.20;;;;;;5031742;28;20061;-59
2022/04/23 05:02:41;;;;;;;14.45;10.60;;;15.00;61.20;;;;;;5028584;28;20036;-58
2022/04/23 05:05:07;;;;;;;12.35;9.57;;;15.60;54.30;;;;;;5048557;28;20435;-58
2022/04/23 05:07:33;;;;;;;11.93;9.10;;;16.20;48.90;;;;;;5027830;28;20496;-59
2022/04/23 05:10:00;;;;;;;11.25;9.43;;;16.90;46.70;;;;;;5048252;28;20036;-65
2022/04/23 05:12:26;;;;;;;9.63;8.38;;;17.50;41.10;;;;;;5027412;28;20018;-65
2022/04/23 05:14:51;;;;;;;11.70;8.35;;;18.00;37.30;;;;;;5048258;28;20044;-65
2022/04/23 05:17:17;;;;;;;12.82;9.43;;;18.50;33.00;;;;;;5027529;28;20108;-65
2022/04/23 05:19:42;;;;;;;9.35;8.00;;;18.90;32.70;;;;;;5048121;28;20021;-64
2022/04/23 05:22:08;;;;;;;8.25;7.07;;;19.60;24.00;;;;;;5027820;28;20053;-65
2022/04/23 05:24:33;;;;;;;9.48;7.85;;;20.20;28.60;;;;;;5048116;28;20041;-65
2022/04/23 05:26:59;;;;;;;11.13;8.85;;;20.20;27.10;;;;;;5027305;28;20045;-65
2022/04/23 05:29:24;;;;;;;10.05;8.57;;;20.60;25.30;;;;;;5048068;28;20029;-65
2022/04/23 05:31:49;;;;;;;10.40;8.43;;;21.20;24.60;;;;;;5027505;28;20028;-65
2022/04/23 05:34:15;;;;;;;10.30;8.60;;;21.30;21.00;;;;;;5047762;28;20095;-66
2022/04/23 05:36:40;;;;;;;8.20;7.03;;;21.80;20.80;;;;;;5037092;28;20032;-65
2022/04/23 05:39:06;;;;;;;9.13;7.82;;;22.30;19.90;;;;;;5029112;28;20404;-65
2022/04/23 05:41:31;;;;;;;8.63;7.20;;;22.80;19.40;;;;;;5045847;28;20086;-66
2022/04/23 05:43:58;;;;;;;11.13;9.15;;;23.60;21.20;;;;;;5028635;28;20021;-66
2022/04/23 05:46:23;;;;;;;10.18;7.90;;;23.90;18.70;;;;;;5045977;28;20029;-66
2022/04/23 05:48:49;;;;;;;10.38;9.02;;;24.40;14.80;;;;;;5048288;28;20381;-66
2022/04/23 05:51:14;;;;;;;8.15;7.35;;;24.20;16.40;;;;;;5033172;28;20523;-63
2022/04/23 05:53:41;;;;;;;9.75;7.88;;;24.70;16.10;;;;;;5048251;28;20036;-66
2022/04/23 05:56:06;;;;;;;7.78;6.97;;;24.90;14.60;;;;;;5031912;28;20017;-64
2022/04/23 05:58:35;;;;;;;8.70;7.80;;;25.30;14.50;;;;;;5048291;28;20389;-64
2022/04/23 06:01:01;;;;;;;10.15;7.97;;;25.50;11.10;;;;;;5023524;28;20112;-65
2022/04/23 06:03:27;;;;;;;10.80;8.73;;;25.40;12.60;;;;;;5048181;28;20147;-65
2022/04/23 06:05:52;;;;;;;9.93;8.82;;;26.00;12.20;;;;;;5030031;28;20104;-65
2022/04/23 06:08:17;;;;;;;8.25;7.45;;;25.40;7.50;;;;;;5047736;28;20063;-65
2022/04/23 06:10:43;;;;;;;7.82;6.95;;;25.80;10.70;;;;;;5028696;28;20145;-65
2022/04/23 06:13:08;;;;;;;8.07;7.13;;;26.90;11.10;;;;;;5048406;28;20032;-65
2022/04/23 06:15:34;;;;;;;10.80;7.15;;;26.70;10.00;;;;;;5027384;28;20040;-65
2022/04/23 06:18:00;;;;;;;9.60;7.53;;;27.10;9.10;;;;;;5048092;28;20025;-65
2022/04/23 06:20:25;;;;;;;7.30;6.20;;;27.80;8.20;;;;;;5028562;28;20028;-65
2022/04/23 06:22:51;;;;;;;7.25;6.55;;;28.10;8.30;;;;;;5044861;28;20033;-64
2022/04/23 06:25:16;;;;;;;8.63;7.10;;;28.40;6.50;;;;;;5028217;28;20080;-65
2022/04/23 06:27:42;;;;;;;8.48;7.68;;;27.80;3.70;;;;;;5027196;28;20512;-64
2022/04/23 06:30:09;;;;;;;9.00;7.82;;;26.70;3.90;;;;;;5047341;28;20029;-65
2022/04/23 06:32:35;;;;;;;8.88;7.85;;;26.20;4.10;;;;;;5026502;28;20794;-64
2022/04/23 06:35:01;;;;;;;8.20;6.80;;;26.20;6.30;;;;;;5047121;28;20504;-64
2022/04/23 06:37:27;;;;;;;9.10;8.20;;;26.20;2.90;;;;;;5026710;28;20033;-64
2022/04/23 06:39:52;;;;;;;7.88;7.07;;;25.70;4.00;;;;;;5047048;28;20028;-64
2022/04/23 06:42:18;;;;;;;9.40;6.72;;;25.90;3.60;;;;;;5026399;28;20025;-64
2022/04/23 06:44:43;;;;;;;6.95;6.28;;;26.60;4.30;;;;;;5046886;28;20040;-64
2022/04/23 06:47:09;;;;;;;7.97;7.07;;;25.80;3.60;;;;;;5026490;28;20107;-64
2022/04/23 06:49:34;;;;;;;8.45;6.05;;;26.90;4.70;;;;;;5046318;28;20564;-63
2022/04/23 06:51:59;;;;;;;6.53;5.70;;;27.70;5.00;;;;;;5025837;28;20068;-64
2022/04/23 06:54:25;;;;;;;7.93;6.22;;;28.30;3.20;;;;;;5046862;28;20496;-64
2022/04/23 06:56:51;;;;;;;6.97;6.25;;;28.50;3.60;;;;;;5026447;28;20036;-64
2022/04/23 06:59:16;;;;;;;7.90;6.20;;;28.70;1.00;;;;;;5037725;28;20025;-63
2022/04/23 07:01:42;;;;;;;5.97;5.43;;;28.00;3.20;;;;;;5035816;28;20033;-64
2022/04/23 07:04:08;;;;;;;7.07;6.25;;;28.70;2.50;;;;;;5028184;28;20013;-64
2022/04/23 07:06:34;;;;;;;5.97;5.38;;;27.80;1.20;;;;;;5045019;28;20053;-60
2022/04/23 07:08:59;;;;;;;5.45;4.93;;;28.60;1.30;;;;;;5027743;28;20063;-60
2022/04/23 07:11:25;;;;;;;6.05;5.45;;;29.10;1.80;;;;;;5044761;28;20032;-60
2022/04/23 07:13:51;;;;;;;8.70;5.82;;;29.30;2.10;;;;;;5028260;28;20095;-60
2022/04/23 07:16:17;;;;;;;6.70;6.10;;;28.80;1.00;;;;;;5044579;28;20029;-60
2022/04/23 07:18:42;;;;;;;6.60;5.88;;;28.10;1.00;;;;;;5047403;28;20477;-60
2022/04/23 07:21:08;;;;;;;5.95;5.35;;;28.10;1.60;;;;;;5031559;28;20029;-60
2022/04/23 07:26:18;;;;;;;6.70;6.00;;;28.10;1.40;;;;;;5032326;28;20089;-60
2022/04/23 07:28:44;;;;;;;6.80;5.38;;;28.30;1.00;;;;;;5047278;28;20028;-60
2022/04/23 07:31:09;;;;;;;5.22;4.72;;;29.20;1.40;;;;;;5031628;28;20029;-60
2022/04/23 07:39:03;;;;;;;5.88;5.28;;;31.40;1.00;;;;;;5051031;28;20090;-60
2022/04/23 07:41:29;;;;;;;5.50;5.00;;;31.40;1.00;;;;;;5037722;28;20029;-60
2022/04/23 07:43:55;;;;;;;6.15;5.55;;;31.30;1.00;;;;;;5031163;28;20041;-60
2022/04/23 07:46:21;;;;;;;8.27;5.70;;;31.40;1.00;;;;;;5048179;28;20021;-60
2022/04/23 07:48:46;;;;;;;6.30;5.32;;;30.10;1.00;;;;;;5050753;28;20033;-60
2022/04/23 07:51:12;;;;;;;5.60;4.97;;;30.80;1.00;;;;;;5035132;28;20041;-60
2022/04/23 07:53:38;;;;;;;5.75;4.72;;;30.80;1.00;;;;;;5050260;28;20054;-60
2022/04/23 07:56:04;;;;;;;5.90;5.13;;;31.10;1.00;;;;;;5033806;28;20036;-60
2022/04/23 07:58:30;;;;;;;5.38;4.90;;;31.20;1.00;;;;;;5050500;28;20500;-60
2022/04/23 08:00:56;;;;;;;5.85;5.25;;;30.90;1.00;;;;;;5028976;28;20174;-61
2022/04/23 08:03:22;;;;;;;5.68;5.18;;;30.30;1.00;;;;;;5050240;28;20024;-60
2022/04/23 08:05:47;;;;;;;6.15;5.65;;;29.20;1.00;;;;;;5031540;28;20025;-60
2022/04/23 08:08:15;;;;;;;6.30;5.50;;;28.70;1.00;;;;;;5050214;28;20048;-60
2022/04/23 08:10:40;;;;;;;6.25;5.72;;;28.20;1.00;;;;;;5030092;28;20539;-60
2022/04/23 08:13:06;;;;;;;4.85;4.43;;;28.40;1.00;;;;;;5050148;28;20033;-60
2022/04/23 08:15:31;;;;;;;6.25;5.65;;;28.20;1.00;;;;;;5029157;28;20120;-60
2022/04/23 08:17:57;;;;;;;5.90;5.38;;;27.30;1.00;;;;;;5049847;28;20025;-60
2022/04/23 08:20:22;;;;;;;5.63;5.13;;;26.70;1.00;;;;;;5030574;28;20033;-60
2022/04/23 08:22:48;;;;;;;6.60;5.75;;;26.60;1.00;;;;;;5028344;28;20034;-60
2022/04/23 08:25:13;;;;;;;6.28;5.68;;;26.70;1.00;;;;;;5049194;28;20041;-60
2022/04/23 08:27:49;;;;;;;6.55;5.68;;;26.40;1.00;;;;;;5028447;28;20571;-60
2022/04/23 08:32:59;;;;;;;5.78;5.28;;;27.20;1.00;;;;;;5010163;28;20729;-60
2022/04/23 08:35:25;;;;;;;4.97;4.57;;;27.50;1.00;;;;;;5048439;28;20033;-60
2022/04/23 08:37:50;;;;;;;4.60;4.20;;;28.00;1.00;;;;;;5047951;28;20037;-60
2022/04/23 08:40:16;;;;;;;4.78;4.38;;;28.20;1.00;;;;;;5030089;28;20116;-60
2022/04/23 08:42:41;;;;;;;5.53;5.03;;;28.30;1.00;;;;;;5028837;28;20077;-61
2022/04/23 08:45:08;;;;;;;5.38;4.60;;;28.30;1.00;;;;;;5048809;28;20083;-60
2022/04/23 08:47:36;;;;;;;4.90;4.50;;;28.50;1.00;;;;;;5027598;28;20048;-60
2022/04/23 08:50:04;;;;;;;5.00;4.60;;;28.90;1.00;;;;;;5044638;28;20042;-60
2022/04/23 08:52:34;;;;;;;5.32;4.82;;;27.50;1.00;;;;;;5027982;28;20026;-60
2022/04/23 08:55:02;;;;;;;5.18;4.68;;;27.30;1.00;;;;;;5049109;28;20032;-61
2022/04/23 08:57:31;;;;;;;4.95;4.55;;;27.90;1.00;;;;;;5027801;28;20037;-60
2022/04/23 08:59:56;;;;;;;5.93;5.35;;;27.00;1.00;;;;;;5016565;28;20525;-60
2022/04/23 09:02:27;;;;;;;6.30;5.70;;;26.50;1.00;;;;;;5043087;28;20106;-60
2022/04/23 09:04:54;;;;;;;6.38;5.78;;;26.10;1.00;;;;;;5029566;28;20080;-60
2022/04/23 09:07:22;;;;;;;5.95;5.45;;;25.30;1.00;;;;;;5031341;28;20023;-61
2022/04/23 09:09:49;;;;;;;6.25;5.68;;;24.80;1.00;;;;;;5048753;28;20044;-65
2022/04/23 09:24:16;;;;;;;7.55;6.75;;;26.20;1.00;;;;;;5049242;28;20036;-71
2022/04/23 09:26:42;;;;;;;6.28;5.70;;;25.00;1.00;;;;;;5068042;28;20391;-71
2022/04/23 09:29:18;;;;;;;6.78;5.45;;;24.10;1.00;;;;;;5064124;28;20044;-62
2022/04/23 09:31:44;;;;;;;5.72;5.18;;;25.00;1.00;;;;;;5047992;28;20498;-62
2022/04/23 09:34:23;;;;;;;7.50;5.45;;;26.20;1.00;;;;;;5047833;28;20131;-61
2022/04/23 09:36:50;;;;;;;5.43;4.93;;;25.40;1.00;;;;;;5067614;28;20460;-62
2022/04/23 09:39:28;;;;;;;7.50;5.28;;;26.10;1.00;;;;;;5063323;28;20095;-62
2022/04/23 09:42:13;;;;;;;6.57;5.97;;;25.80;1.00;;;;;;5048006;28;20048;-61
2022/04/23 09:44:40;;;;;;;6.93;6.22;;;24.60;1.00;;;;;;5051752;28;20021;-61
2022/04/23 09:47:05;;;;;;;7.60;6.45;;;25.20;1.00;;;;;;5067263;28;20064;-61
2022/04/23 09:49:31;;;;;;;7.25;6.15;;;26.60;1.00;;;;;;5061053;28;20048;-61
2022/04/23 09:52:05;;;;;;;6.78;6.07;;;26.20;1.00;;;;;;5047724;28;20379;-61
2022/04/23 09:54:31;;;;;;;7.00;6.30;;;26.00;1.00;;;;;;5050763;28;20048;-62
2022/04/23 09:56:57;;;;;;;7.00;6.30;;;25.10;1.00;;;;;;5067030;28;20115;-61
2022/04/23 09:59:23;;;;;;;6.50;6.00;;;24.40;1.00;;;;;;5061182;28;20100;-62
2022/04/23 10:01:49;;;;;;;6.32;5.72;;;24.00;1.10;;;;;;5047218;28;20020;-62
2022/04/23 10:04:21;;;;;;;6.57;5.97;;;24.80;1.00;;;;;;5048720;28;21086;-62
2022/04/23 10:06:49;;;;;;;7.78;5.70;;;24.70;1.00;;;;;;5067893;28;20044;-61
2022/04/23 10:09:18;;;;;;;5.43;4.65;;;22.80;1.90;;;;;;5062943;28;20105;-62
2022/04/23 10:11:44;;;;;;;5.35;4.70;;;20.50;4.10;;;;;;5047465;28;20017;-61
2022/04/23 10:14:13;;;;;;;4.45;4.05;;;19.20;5.70;;;;;;5044821;28;20052;-61
2022/04/23 10:16:40;;;;;;;6.85;4.78;;;18.30;7.20;;;;;;5047071;28;20035;-61
2022/04/23 10:19:07;;;;;;;6.03;5.07;;;17.70;9.60;;;;;;5044989;28;20025;-61
2022/04/23 10:21:59;;;;;;;5.90;4.72;;;17.40;11.10;;;;;;5043827;28;20013;-62
2022/04/23 10:25:05;;;;;;;5.35;4.63;;;17.20;11.50;;;;;;5045147;28;20553;-62
2022/04/23 10:27:33;;;;;;;6.35;4.15;;;17.00;13.00;;;;;;5016990;28;20041;-62
2022/04/23 10:30:04;;;;;;;5.00;4.50;;;17.10;11.80;;;;;;5045431;28;20029;-61
2022/04/23 10:32:40;;;;;;;7.22;5.93;;;17.20;10.90;;;;;;5047307;28;20460;-62
2022/04/23 10:35:26;;;;;;;;;;;17.20;11.60;;;;;;5045350;28;20114;-61
2022/04/23 10:37:52;;;;;;;5.22;4.70;;;16.80;12.40;;;;;;5039205;28;19940;-61
2022/04/23 10:40:21;;;;;;;5.90;4.80;;;16.80;12.80;;;;;;5045050;28;20483;-61
2022/04/23 10:43:06;;;;;;;6.85;4.97;;;16.80;11.50;;;;;;5047074;28;20035;-62
2022/04/23 10:45:32;;;;;;;5.55;4.72;;;16.70;12.10;;;;;;5045078;28;20032;-62
2022/04/23 10:48:24;;;;;;;5.80;4.95;;;16.80;12.60;;;;;;5046759;28;20383;-61
2022/04/23 10:51:21;;;;;;;6.20;5.53;;;17.10;13.10;;;;;;5044980;28;20030;-62
2022/04/23 10:53:47;;;;;;;5.82;5.18;;;16.80;12.50;;;;;;5047091;28;20021;-61
2022/04/23 10:56:15;;;;;;;5.20;4.53;;;16.70;12.60;;;;;;5044834;28;20031;-61
2022/04/23 10:58:41;;;;;;;4.82;4.32;;;16.60;12.80;;;;;;5046785;28;20021;-61
2022/04/23 11:01:29;;;;;;;6.05;5.07;;;16.40;12.50;;;;;;5044637;28;20233;-60
2022/04/23 11:03:56;;;;;;;4.60;4.20;;;16.50;13.60;;;;;;5046583;28;20057;-61
2022/04/23 11:12:32;;;;;;;8.48;5.07;;;16.50;11.80;;;;;;5050579;28;20039;-60
2022/04/23 11:14:58;;;;;;;4.50;3.85;;;16.60;11.40;;;;;;5028165;28;20299;-61
2022/04/23 11:17:45;;;;;;;6.35;4.43;;;16.50;10.00;;;;;;5050290;28;20287;-62
2022/04/23 11:20:10;;;;;;;;;;;16.50;9.80;;;;;;5022616;28;20017;-61
2022/04/23 11:22:37;;;;;;;5.80;4.40;;;16.50;10.70;;;;;;5030852;28;20183;-61
2022/04/23 11:25:03;;;;;;;4.40;4.00;;;16.50;10.70;;;;;;5047721;28;20032;-61
2022/04/23 11:27:32;;;;;;;3.72;3.42;;;16.40;10.10;;;;;;5031061;28;20037;-62
2022/04/23 11:29:58;;;;;;;6.75;4.18;;;16.60;11.40;;;;;;5048106;28;20035;-61
2022/04/23 11:32:29;;;;;;;5.18;3.78;;;16.70;10.80;;;;;;5030675;28;20025;-62
2022/04/23 11:35:03;;;;;;;6.18;4.28;;;16.90;11.00;;;;;;5047452;28;20029;-62
2022/04/23 11:37:32;;;;;;;5.03;4.35;;;16.90;11.30;;;;;;5010509;28;20501;-61
2022/04/23 11:40:09;;;;;;;5.13;4.63;;;16.80;10.70;;;;;;5047058;28;20025;-61
2022/04/23 11:42:42;;;;;;;4.35;3.95;;;16.80;10.80;;;;;;5030177;28;20484;-62
2022/04/23 11:45:10;;;;;;;5.28;4.20;;;16.60;11.70;;;;;;5047307;28;20035;-62
2022/04/23 11:47:36;;;;;;;5.35;4.25;;;16.40;11.40;;;;;;5030081;28;20514;-62
2022/04/23 11:50:09;;;;;;;6.28;3.88;;;16.40;11.70;;;;;;5047284;28;20057;-62
2022/04/23 11:52:34;;;;;;;4.15;3.75;;;16.60;11.60;;;;;;5030112;28;20041;-62
2022/04/23 11:55:01;;;;;;;5.32;4.75;;;16.60;9.70;;;;;;5047213;28;20370;-61
2022/04/23 11:57:26;;;;;;;4.25;3.75;;;16.80;10.50;;;;;;5030196;28;20389;-61
2022/04/23 12:00:03;;;;;;;6.38;5.15;;;16.90;10.80;;;;;;5046806;28;20251;-61
2022/04/23 12:02:31;;;;;;;7.25;5.45;;;16.70;11.30;;;;;;5010346;28;20026;-62
2022/04/23 12:04:58;;;;;;;5.85;4.65;;;16.70;12.40;;;;;;5046981;28;20104;-62
2022/04/23 12:07:25;;;;;;;5.30;4.80;;;16.70;12.30;;;;;;5030014;28;20038;-62
2022/04/23 12:09:58;;;;;;;7.28;3.80;;;16.50;12.20;;;;;;5046973;28;20410;-62
2022/04/23 12:12:26;;;;;;;6.28;4.80;;;16.50;12.10;;;;;;5009747;28;20501;-62
2022/04/23 12:14:52;;;;;;;5.65;4.63;;;16.50;12.30;;;;;;5045088;28;20246;-61
2022/04/23 12:17:29;;;;;;;5.70;4.97;;;16.50;12.20;;;;;;5049126;28;20387;-62
2022/04/23 12:19:56;;;;;;;6.05;4.75;;;16.50;12.30;;;;;;5016530;28;20025;-61
2022/04/23 12:22:26;;;;;;;6.35;4.47;;;16.60;12.80;;;;;;5028553;28;20397;-62
2022/04/23 12:25:25;;;;;;;5.38;4.32;;;16.70;12.60;;;;;;5046954;28;20025;-61
2022/04/23 12:42:05;;;;;;;5.82;4.60;;;16.60;13.20;;;;;;5049120;28;20059;-62
2022/04/23 12:44:39;;;;;;;6.05;5.18;;;16.60;12.00;;;;;;5017013;28;20036;-61
2022/04/23 12:47:06;;;;;;;6.00;4.53;;;16.60;12.20;;;;;;5048475;28;20074;-61
2022/04/23 12:49:56;;;;;;;8.00;4.40;;;16.40;12.30;;;;;;5032341;28;20094;-61
2022/04/23 12:52:29;;;;;;;5.28;4.57;;;16.30;12.90;;;;;;5028713;28;20059;-61
2022/04/23 12:55:13;;;;;;;5.25;4.15;;;16.40;12.80;;;;;;5022903;28;20078;-61
2022/04/23 12:58:01;;;;;;;5.40;4.88;;;16.50;12.30;;;;;;5029071;28;20484;-62
2022/04/23 13:00:28;;;;;;;4.80;3.97;;;16.50;12.40;;;;;;5025151;28;20040;-61
2022/04/23 13:02:59;;;;;;;4.28;3.92;;;16.50;12.40;;;;;;5028765;28;20029;-61
2022/04/23 13:05:26;;;;;;;6.43;4.50;;;16.50;12.60;;;;;;5031156;28;20044;-61
2022/04/23 13:10:37;;;;;;;4.38;3.97;;;16.20;12.10;;;;;;5034433;28;20522;-61
2022/04/23 13:13:05;;;;;;;4.93;4.40;;;16.10;12.30;;;;;;5047925;28;20029;-60
2022/04/23 13:15:31;;;;;;;6.20;4.35;;;15.90;11.50;;;;;;5039749;28;20060;-60
2022/04/23 13:17:57;;;;;;;8.98;4.47;;;15.90;12.00;;;;;;5048079;28;20435;-60
2022/04/23 13:20:22;;;;;;;4.90;4.40;;;15.90;12.50;;;;;;5035081;28;20250;-60
2022/04/23 13:22:48;;;;;;;4.00;3.60;;;16.00;12.40;;;;;;5028764;28;20456;-61
2022/04/23 13:25:15;;;;;;;4.55;3.50;;;16.10;12.40;;;;;;5045432;28;20025;-60
2022/04/23 13:27:42;;;;;;;3.85;3.55;;;16.40;12.20;;;;;;5028157;28;20047;-60
2022/04/23 13:30:09;;;;;;;6.68;4.35;;;16.50;11.60;;;;;;5035579;28;20218;-69
2022/04/23 13:32:37;;;;;;;4.45;3.95;;;16.60;11.40;;;;;;5047038;28;20032;-69
2022/04/23 13:35:03;;;;;;;5.30;4.72;;;16.80;12.00;;;;;;5035291;28;20031;-69
2022/04/23 13:37:29;;;;;;;4.88;3.80;;;16.90;12.00;;;;;;5028514;28;20029;-69